หน้าหลัก
METAR-TAF:

METAR-TAF

ท่าอากาศยาน :

เบอร์มิวดา, เบอร์มิวดา

ละติจูด: 32-22N, ลองจิจูด: 064-41W, ความสูง: 6 ม.

การสังเกตสภาพอากาศปัจจุบัน

รายงานได้ทำขึ้นเมื่อ 59 นาทีที่แล้ว ณ เวลา 13:55 UTC
ลม 12 นอตจากเหนือ
อุณหภูมิ 18°C
ความชื้น 77%
ความกดอากาศ 1011 hPa
ทัศนวิสัย 10 กม. หรือมากกว่า
มีเมฆน้อยที่ความสูง 2500 ฟุต
มีเมฆมาก มืดครึ้มที่ความสูง 25000 ฟุต

METAR: TXKF 221355Z 35012KT 9999 FEW025 OVC250 18/14 Q1011

เวลา: 10:54 (14:54 UTC)

การพยากรณ์

รายงานได้ทำขึ้นเมื่อ 3 ชั่วโมงและ 24 นาทีที่แล้ว ณ เวลา 11:30 UTC
การพยากรณ์มีผลตั้งแต่วันที่ 22 ณ เวลา 12 UTC จนถึงวันที่ 23 ณ เวลา 12 UTC
ลม 15 นอตจากเหนือ/ตะวันตกเฉียงเหนือ
ทัศนวิสัย 10 กม. หรือมากกว่า
มีเมฆกระจายเป็นบางส่วนที่ความสูง 1800 ฟุต
มีเมฆเป็นส่วนมากเว้นเป็นระยะที่ความสูง 30000 ฟุต
การโปรยปรายในบริเวณใกล้เคียง,

TAF: TXKF 221130Z 2212/2312 33015KT 9999 VCSH SCT018 BKN300

สังเกตการณ์สภาพอากาศและพยากรณ์อากาศของสนามบินมากกว่า 4000 แห่ง (รายงาน METAR และ TAF).

สถานีที่ดูได้จะแสดงไว้ด้วยจุดสีเหลืองและสีแดงบนแผนที่.

เลื่อนเมาส์ไปเหนือจุดเพื่อดูชื่อสถานี.

แล้วคลิกเพื่อดูสังเกตการณ์และการพยากรณ์สภาพอากาศ.

ในการเปลี่ยนแผนที่: คลิกที่ปุ่มสีเขียวที่มีกากบาทสีดำเพื่อซูมเข้า; ที่ปุ่มสีเขียวที่มีขีดเพื่อซูมออก; หรือที่ลูกศรสีเขียวเพื่อไปยังแผนที่ที่อยู่ติดกัน.


METAR-TAF: